Time;durP1;ratioP1;P1;durP2;ratioP2;P2;SDS_P1;SDS_P2;PMS_P1;PMS_P2;Temp;Humidity;BMP_temperature;BMP_pressure;BME280_temperature;BME280_humidity;BME280_pressure;Samples;Min_cycle;Max_cycle;Signal;HPM_P1;HPM_P2
2022/08/13 00:00:31;;;;;;;;;15.00;14.50;;;;;29.27;27.60;101017.88;5092881;27;45379;-68
2022/08/13 00:02:58;;;;;;;;;15.00;14.00;;;;;29.24;27.25;101018.38;5080031;28;45701;-68
2022/08/13 00:05:24;;;;;;;;;17.50;17.00;;;;;29.24;26.98;101014.72;5093128;27;46362;-68
2022/08/13 00:07:50;;;;;;;;;19.50;15.25;;;;;29.20;27.77;101016.38;5077390;27;45796;-68
2022/08/13 00:10:30;;;;;;;;;18.50;17.00;;;;;29.18;27.53;101013.84;5094178;27;45432;-69
2022/08/13 00:12:56;;;;;;;;;13.00;13.00;;;;;28.98;27.42;101013.66;5092113;27;45648;-68
2022/08/13 00:15:28;;;;;;;;;15.00;15.00;;;;;29.01;27.81;101018.69;5091109;27;45385;-68
2022/08/13 00:17:57;;;;;;;;;13.25;12.25;;;;;28.97;27.32;101021.19;5091440;27;45331;-69
2022/08/13 00:20:26;;;;;;;;;17.25;12.50;;;;;28.97;27.73;101023.16;5089613;27;45449;-68
2022/08/13 00:22:54;;;;;;;;;12.50;12.00;;;;;28.93;27.73;101022.00;5091636;27;45456;-68
2022/08/13 00:25:20;;;;;;;;;16.00;14.25;;;;;28.85;28.04;101008.47;5087431;27;45500;-67
2022/08/13 00:27:47;;;;;;;;;11.25;11.25;;;;;28.83;27.52;101021.88;5094574;27;45349;-68
2022/08/13 00:30:15;;;;;;;;;16.25;13.00;;;;;28.88;27.80;101019.13;5090171;27;45484;-68
2022/08/13 00:32:43;;;;;;;;;15.50;13.25;;;;;28.84;27.91;101024.41;5104023;27;45439;-67
2022/08/13 00:35:09;;;;;;;;;14.50;13.50;;;;;28.80;28.06;101026.03;5091262;27;45358;-68
2022/08/13 00:37:36;;;;;;;;;16.75;13.00;;;;;28.71;28.07;101018.34;5103201;27;45386;-67
2022/08/13 00:40:02;;;;;;;;;15.75;13.75;;;;;28.74;28.10;101029.84;5091599;27;45517;-67
2022/08/13 00:42:28;;;;;;;;;14.75;14.00;;;;;28.65;28.09;101026.66;5094172;27;45233;-69
2022/08/13 00:44:53;;;;;;;;;13.25;12.50;;;;;28.64;27.83;101026.91;5085985;27;45707;-68
2022/08/13 00:50:04;;;;;;;;;14.50;11.75;;;;;28.66;28.50;101027.50;5088802;27;45380;-68
2022/08/13 00:52:31;;;;;;;;;16.25;13.50;;;;;28.47;28.19;101024.22;5089118;27;45461;-68
2022/08/13 00:55:02;;;;;;;;;17.75;15.00;;;;;28.40;28.51;101023.56;5088153;27;45389;-68
2022/08/13 00:57:28;;;;;;;;;13.75;13.75;;;;;28.35;28.68;101020.69;5072610;27;45291;-67
2022/08/13 00:59:54;;;;;;;;;11.50;11.00;;;;;28.35;28.35;101023.47;5088231;27;45274;-67
2022/08/13 01:02:20;;;;;;;;;12.00;10.00;;;;;28.35;28.39;101026.25;5093840;27;45283;-67
2022/08/13 01:04:46;;;;;;;;;14.25;14.00;;;;;28.16;28.38;101020.16;5086661;27;45639;-67
2022/08/13 01:07:15;;;;;;;;;11.75;10.00;;;;;28.23;28.53;101028.34;5095361;27;45244;-67
2022/08/13 01:09:40;;;;;;;;;11.75;10.00;;;;;28.17;28.43;101030.22;5088222;27;45508;-67
2022/08/13 01:12:09;;;;;;;;;9.75;9.75;;;;;28.14;28.39;101046.63;5094372;27;45369;-67
2022/08/13 01:14:36;;;;;;;;;13.25;11.75;;;;;28.16;28.83;101034.13;5074582;27;47028;-69
2022/08/13 01:17:04;;;;;;;;;8.75;8.75;;;;;28.11;28.39;101039.63;5074351;27;45342;-67
2022/08/13 01:19:31;;;;;;;;;13.50;10.00;;;;;28.10;28.47;101035.13;5083636;27;45313;-67
2022/08/13 01:21:59;;;;;;;;;9.00;9.00;;;;;28.03;28.81;101040.06;5090453;27;45512;-67
2022/08/13 01:24:25;;;;;;;;;9.00;9.00;;;;;27.93;28.57;101031.50;5076989;27;46960;-67
2022/08/13 01:26:52;;;;;;;;;10.25;10.00;;;;;27.94;28.69;101029.56;5075184;27;45498;-67
2022/08/13 01:29:18;;;;;;;;;7.75;7.75;;;;;27.86;29.04;101025.25;5091841;27;45481;-67
2022/08/13 01:31:44;;;;;;;;;10.25;9.50;;;;;27.75;28.53;101029.00;5100414;27;45472;-67
2022/08/13 01:34:12;;;;;;;;;10.50;10.50;;;;;27.73;28.24;101032.03;5092428;27;47067;-67
2022/08/13 01:36:37;;;;;;;;;10.00;10.00;;;;;27.69;28.72;101032.81;5098528;27;45330;-67
2022/08/13 01:39:04;;;;;;;;;9.00;9.00;;;;;27.66;28.94;101031.38;5093670;27;45355;-67
2022/08/13 01:41:31;;;;;;;;;10.00;8.50;;;;;27.61;28.92;101030.44;5097871;27;45420;-67
2022/08/13 01:44:04;;;;;;;;;10.25;8.00;;;;;27.54;28.37;101036.22;5083164;27;45518;-67
2022/08/13 01:50:28;;;;;;;;;9.75;8.75;;;;;27.51;28.83;101029.13;5090900;27;45306;-67
2022/08/13 01:52:00;;;;;;;;;9.00;9.00;;;;;27.46;29.17;101029.06;5088865;27;45325;-67
2022/08/13 01:54:26;;;;;;;;;9.33;8.00;;;;;27.36;29.55;101037.25;5082933;27;45510;-67
2022/08/13 01:56:52;;;;;;;;;10.00;10.00;;;;;27.24;29.27;101036.47;5075977;27;45890;-67
2022/08/13 01:59:18;;;;;;;;;8.25;8.25;;;;;27.15;29.45;101034.34;5083032;28;45459;-67
2022/08/13 02:01:45;;;;;;;;;8.75;7.25;;;;;27.23;29.18;101039.50;5098280;27;45661;-67
2022/08/13 02:04:13;;;;;;;;;11.75;11.75;;;;;27.19;29.24;101036.38;5082840;28;46095;-67
2022/08/13 02:06:40;;;;;;;;;11.50;11.50;;;;;27.17;28.99;101034.94;5093340;27;45392;-67
2022/08/13 02:09:07;;;;;;;;;8.00;8.00;;;;;27.17;29.31;101046.09;5088093;27;45243;-67
2022/08/13 02:11:36;;;;;;;;;9.00;9.00;;;;;27.12;29.26;101042.09;5095876;27;45411;-67
2022/08/13 02:14:04;;;;;;;;;8.50;8.50;;;;;27.10;29.45;101035.91;5088241;27;46360;-67
2022/08/13 02:16:36;;;;;;;;;9.00;8.00;;;;;27.02;29.76;101039.16;5096841;27;45626;-67
2022/08/13 02:19:04;;;;;;;;;8.00;8.00;;;;;27.04;29.68;101036.94;5087208;27;45405;-67
2022/08/13 02:21:38;;;;;;;;;9.00;7.00;;;;;26.94;29.67;101028.38;5091272;27;45529;-67
2022/08/13 02:24:08;;;;;;;;;10.25;10.25;;;;;26.97;30.22;101039.03;5095654;27;45227;-67
2022/08/13 02:26:34;;;;;;;;;10.00;10.00;;;;;26.97;29.95;101039.03;5096851;27;45481;-67
2022/08/13 02:29:04;;;;;;;;;9.67;9.00;;;;;26.94;29.89;101036.75;5097510;27;45317;-67
2022/08/13 02:31:29;;;;;;;;;14.00;10.25;;;;;26.92;30.04;101038.94;5084535;27;45412;-67
2022/08/13 02:33:55;;;;;;;;;10.00;8.00;;;;;26.88;30.34;101029.34;5098829;27;46119;-67
2022/08/13 02:36:22;;;;;;;;;9.00;9.00;;;;;26.85;29.80;101038.19;5079724;27;45350;-67
2022/08/13 02:38:58;;;;;;;;;7.33;7.33;;;;;26.74;29.83;101030.72;5098291;27;45433;-67
2022/08/13 02:41:39;;;;;;;;;9.33;7.67;;;;;26.73;29.63;101037.41;5098822;27;45523;-67
2022/08/13 02:44:06;;;;;;;;;9.00;9.00;;;;;26.71;29.79;101036.81;5088609;27;46579;-67
2022/08/13 02:46:32;;;;;;;;;8.00;8.00;;;;;26.70;30.16;101041.53;5093790;27;45366;-67
2022/08/13 02:49:02;;;;;;;;;8.00;8.00;;;;;26.63;30.22;101031.63;5085821;27;45404;-67
2022/08/13 02:51:29;;;;;;;;;9.00;8.00;;;;;26.63;30.04;101037.19;5077089;28;45469;-67
2022/08/13 02:53:54;;;;;;;;;9.67;9.67;;;;;26.68;29.70;101037.28;5085181;27;46387;-67
2022/08/13 02:56:19;;;;;;;;;8.00;7.67;;;;;26.58;29.75;101032.38;5094331;27;45429;-67
2022/08/13 02:58:45;;;;;;;;;7.33;7.33;;;;;26.56;30.01;101033.69;5085662;27;45307;-67
2022/08/13 03:01:14;;;;;;;;;9.33;8.33;;;;;26.50;30.11;101035.53;5098659;27;45403;-67
2022/08/13 03:03:40;;;;;;;;;8.33;8.00;;;;;26.52;30.02;101026.94;5087265;27;45307;-67
2022/08/13 03:06:08;;;;;;;;;10.33;8.33;;;;;26.57;29.67;101038.19;5094152;27;45320;-67
2022/08/13 03:08:35;;;;;;;;;8.75;7.75;;;;;26.55;29.85;101035.63;5092305;27;45464;-67
2022/08/13 03:11:00;;;;;;;;;9.00;9.00;;;;;26.63;29.42;101028.84;5099189;27;45493;-67
2022/08/13 03:13:30;;;;;;;;;9.00;9.00;;;;;26.57;30.51;101029.81;5089708;27;45432;-67
2022/08/13 03:15:57;;;;;;;;;9.00;9.00;;;;;26.53;29.85;101026.66;5096742;27;45635;-67
2022/08/13 03:18:23;;;;;;;;;9.00;7.25;;;;;26.42;30.35;101019.19;5088550;27;45480;-67
2022/08/13 03:20:50;;;;;;;;;10.33;8.00;;;;;26.44;30.17;101036.53;5090495;27;45392;-67
2022/08/13 03:23:16;;;;;;;;;10.00;10.00;;;;;26.37;30.59;101032.19;5086848;27;45267;-67
2022/08/13 03:25:41;;;;;;;;;8.33;8.00;;;;;26.34;30.32;101036.28;5090631;27;45363;-67
2022/08/13 03:28:06;;;;;;;;;9.33;8.00;;;;;26.28;30.23;101032.56;5101401;27;45245;-67
2022/08/13 03:30:34;;;;;;;;;10.00;9.00;;;;;26.28;30.87;101037.28;5093091;27;45318;-67
2022/08/13 03:33:08;;;;;;;;;9.25;8.25;;;;;26.24;30.92;101028.53;5073683;27;45716;-67
2022/08/13 03:35:35;;;;;;;;;8.25;8.25;;;;;26.16;30.95;101028.91;5074315;27;45566;-67
2022/08/13 03:38:02;;;;;;;;;9.25;8.50;;;;;26.10;30.56;101024.31;5100920;27;45329;-67
2022/08/13 03:41:00;;;;;;;;;8.75;8.75;;;;;25.97;30.56;101033.78;5086195;27;45525;-67
2022/08/13 03:43:17;;;;;;;;;10.67;7.33;;;;;25.99;31.24;101022.41;5086031;27;45928;-67
2022/08/13 03:45:44;;;;;;;;;9.67;8.33;;;;;25.95;31.20;101027.59;5091625;27;45401;-67
2022/08/13 03:48:11;;;;;;;;;9.75;8.50;;;;;25.84;31.34;101033.16;5086424;27;45485;-67
2022/08/13 03:50:36;;;;;;;;;9.75;8.00;;;;;25.80;31.60;101035.56;5091519;27;45427;-67
2022/08/13 03:53:05;;;;;;;;;10.50;9.00;;;;;25.86;31.39;101040.16;5085873;27;46047;-67
2022/08/13 03:55:33;;;;;;;;;12.25;10.75;;;;;25.81;31.41;101036.41;5091422;27;45315;-67
2022/08/13 03:58:00;;;;;;;;;10.00;8.25;;;;;25.85;31.00;101034.88;5085498;27;45497;-67
2022/08/13 04:00:28;;;;;;;;;9.50;9.50;;;;;25.86;31.46;101040.16;5091518;27;45507;-67
2022/08/13 04:02:54;;;;;;;;;9.50;8.00;;;;;25.88;31.45;101032.44;5091625;27;45532;-67
2022/08/13 04:05:20;;;;;;;;;9.50;9.00;;;;;25.87;31.90;101036.31;5092523;27;45309;-66
2022/08/13 04:07:46;;;;;;;;;9.33;8.00;;;;;25.90;30.98;101034.97;5090293;27;45423;-67
2022/08/13 04:10:12;;;;;;;;;9.00;8.00;;;;;25.92;31.05;101033.66;5093743;27;45376;-66
2022/08/13 04:12:38;;;;;;;;;9.00;9.00;;;;;25.94;31.28;101030.59;5092612;27;46532;-67
2022/08/13 04:15:06;;;;;;;;;9.75;7.50;;;;;25.95;31.47;101035.09;5090017;27;45461;-67
2022/08/13 04:17:36;;;;;;;;;9.00;9.00;;;;;25.84;31.67;101033.16;5092188;27;45290;-67
2022/08/13 04:20:04;;;;;;;;;9.00;9.00;;;;;25.80;31.48;101030.00;5089338;27;45467;-67
2022/08/13 04:22:29;;;;;;;;;15.50;9.50;;;;;25.71;31.52;101030.63;5091145;27;47795;-67
2022/08/13 04:24:55;;;;;;;;;9.00;8.00;;;;;25.72;32.07;101032.28;5080019;27;45372;-67
2022/08/13 04:27:21;;;;;;;;;11.50;10.00;;;;;25.65;31.80;101037.13;5091931;27;45364;-67
2022/08/13 04:29:46;;;;;;;;;9.00;7.00;;;;;25.61;31.77;101030.38;5073448;27;45716;-67
2022/08/13 04:32:11;;;;;;;;;12.75;11.00;;;;;25.62;31.66;101038.47;5080031;27;47218;-67
2022/08/13 04:34:37;;;;;;;;;10.75;9.00;;;;;25.59;31.39;101038.94;5073766;27;45431;-67
2022/08/13 04:37:03;;;;;;;;;7.00;7.00;;;;;25.61;31.50;101033.16;5100923;27;45370;-67
2022/08/13 04:39:28;;;;;;;;;10.00;9.00;;;;;25.62;31.83;101027.34;5073733;27;45396;-67
2022/08/13 04:41:53;;;;;;;;;12.25;9.50;;;;;25.60;32.08;101029.53;5094065;27;45407;-67
2022/08/13 04:44:19;;;;;;;;;9.75;9.75;;;;;25.53;32.13;101032.38;5084082;27;45307;-67
2022/08/13 04:46:45;;;;;;;;;8.25;8.25;;;;;25.49;31.57;101033.97;5073582;27;45382;-66
2022/08/13 04:49:11;;;;;;;;;10.00;9.50;;;;;25.48;31.76;101029.47;5084331;27;45244;-67
2022/08/13 04:51:38;;;;;;;;;8.25;8.25;;;;;25.48;31.89;101026.69;5091923;27;46137;-67
2022/08/13 04:54:03;;;;;;;;;15.25;10.00;;;;;25.51;31.94;101036.47;5093651;27;45496;-67
2022/08/13 04:56:29;;;;;;;;;8.00;8.00;;;;;25.56;31.28;101023.56;5092629;27;45448;-66
2022/08/13 04:58:55;;;;;;;;;10.75;7.50;;;;;25.65;31.69;101028.78;5098774;27;45321;-67
2022/08/13 05:01:21;;;;;;;;;9.00;9.00;;;;;25.70;31.56;101017.81;5074762;27;48012;-66
2022/08/13 05:03:47;;;;;;;;;7.50;7.50;;;;;25.64;31.66;101033.53;5084479;27;45468;-66
2022/08/13 05:06:19;;;;;;;;;8.00;8.00;;;;;25.58;31.55;101024.19;5092059;27;45544;-66
2022/08/13 05:08:46;;;;;;;;;9.00;7.00;;;;;25.61;31.55;101030.38;5082159;27;45305;-66
2022/08/13 05:11:12;;;;;;;;;10.00;8.67;;;;;25.59;31.76;101034.22;5086542;27;46110;-66
2022/08/13 05:13:39;;;;;;;;;10.50;10.25;;;;;25.56;31.66;101031.06;5087106;27;45456;-66
2022/08/13 05:16:07;;;;;;;;;12.25;9.00;;;;;25.61;32.13;101030.38;5089564;27;45369;-66
2022/08/13 05:18:37;;;;;;;;;8.67;8.67;;;;;25.61;32.17;101038.72;5084018;27;45476;-66
2022/08/13 05:21:05;;;;;;;;;7.75;7.75;;;;;25.61;31.56;101035.94;5092390;27;45508;-66
2022/08/13 05:23:34;;;;;;;;;9.75;9.75;;;;;25.69;31.50;101039.22;5087150;27;45222;-69
2022/08/13 05:26:00;;;;;;;;;8.75;8.75;;;;;25.80;31.95;101040.28;5096321;27;45451;-66
2022/08/13 05:28:26;;;;;;;;;10.00;10.00;;;;;25.91;30.84;101040.31;5103429;27;45462;-66
2022/08/13 05:30:52;;;;;;;;;7.33;7.33;;;;;25.98;31.19;101043.81;5089936;27;45659;-67
2022/08/13 05:33:19;;;;;;;;;8.00;8.00;;;;;26.14;30.94;101042.25;5087290;27;45393;-67
2022/08/13 05:35:58;;;;;;;;;8.75;7.50;;;;;26.25;30.77;101040.53;5093249;27;45307;-66
2022/08/13 05:38:25;;;;;;;;;9.00;8.25;;;;;27.18;29.59;101054.19;5085383;27;45357;-66
2022/08/13 05:41:02;;;;;;;;;9.00;8.50;;;;;28.34;27.69;101035.78;5093420;27;45549;-67
2022/08/13 05:43:30;;;;;;;;;9.33;8.00;;;;;28.78;27.14;101038.59;5083657;27;45325;-66
2022/08/13 05:45:58;;;;;;;;;8.00;8.00;;;;;28.13;27.75;101053.31;5091842;27;45155;-67
2022/08/13 05:48:28;;;;;;;;;8.00;8.00;;;;;27.73;28.64;101045.16;5091606;27;45414;-67
2022/08/13 05:50:59;;;;;;;;;7.67;7.67;;;;;27.54;29.09;101054.91;5095882;27;45573;-67
2022/08/13 05:53:26;;;;;;;;;8.25;8.25;;;;;27.40;29.08;101049.59;5093191;27;45373;-67
2022/08/13 05:55:53;;;;;;;;;7.33;7.33;;;;;27.35;28.96;101059.81;5097257;27;45298;-67
2022/08/13 05:58:18;;;;;;;;;7.67;7.67;;;;;27.42;28.80;101052.13;5094376;27;45264;-67
2022/08/13 06:03:27;;;;;;;;;7.00;6.67;;;;;27.48;28.96;101053.91;5096467;27;45322;-67
2022/08/13 06:05:56;;;;;;;;;8.33;7.67;;;;;27.52;28.87;101052.31;5094892;27;45353;-67
2022/08/13 06:08:30;;;;;;;;;8.00;8.00;;;;;27.50;28.63;101052.56;5091036;27;45655;-67
2022/08/13 06:11:00;;;;;;;;;8.67;8.67;;;;;27.49;29.04;101052.81;5102976;27;45334;-67
2022/08/13 06:13:28;;;;;;;;;8.75;7.25;;;;;27.50;29.16;101054.50;5090177;27;45471;-68
2022/08/13 06:15:58;;;;;;;;;8.00;8.00;;;;;27.83;28.26;101062.09;5095263;27;45420;-67
2022/08/13 06:18:33;;;;;;;;;8.00;8.00;;;;;28.03;28.67;101058.75;5090882;27;45468;-67
2022/08/13 06:21:10;;;;;;;;;8.00;8.00;;;;;28.48;27.54;101053.84;5074650;27;47490;-67
2022/08/13 06:23:36;;;;;;;;;7.33;7.33;;;;;28.78;27.78;101056.22;5087551;27;45385;-67
2022/08/13 06:26:05;;;;;;;;;7.00;7.00;;;;;28.89;27.24;101054.38;5098060;27;45519;-67
2022/08/13 06:28:31;;;;;;;;;10.00;8.33;;;;;28.84;27.46;101046.78;5102895;27;45316;-67
2022/08/13 06:31:00;;;;;;;;;7.00;6.33;;;;;28.66;27.70;101047.94;5097056;27;46362;-67
2022/08/13 06:33:27;;;;;;;;;8.00;8.00;;;;;28.64;27.31;101058.50;5088555;27;45495;-67
2022/08/13 06:36:01;;;;;;;;;9.00;8.00;;;;;28.57;27.55;101049.47;5093315;27;45421;-66
2022/08/13 06:38:36;;;;;;;;;7.67;7.67;;;;;28.53;27.79;101056.72;5087360;27;45503;-67
2022/08/13 06:41:04;;;;;;;;;8.33;8.33;;;;;28.59;27.84;101057.63;5094368;27;45373;-67
2022/08/13 06:43:35;;;;;;;;;9.00;8.25;;;;;29.11;27.29;101055.19;5085756;27;45235;-69
2022/08/13 06:46:03;;;;;;;;;7.00;7.00;;;;;29.87;25.96;101053.13;5095598;27;45262;-67
2022/08/13 06:48:29;;;;;;;;;10.00;8.00;;;;;29.80;26.48;101063.72;5085872;27;46255;-66
2022/08/13 06:50:55;;;;;;;;;9.75;8.00;;;;;29.64;26.24;101056.28;5094517;27;47237;-66
2022/08/13 06:53:21;;;;;;;;;8.33;8.33;;;;;29.52;26.92;101058.41;5085218;27;45334;-67
2022/08/13 06:55:50;;;;;;;;;6.00;6.00;;;;;29.53;26.64;101054.50;5094497;27;45222;-67
2022/08/13 06:58:17;;;;;;;;;8.50;8.50;;;;;29.55;26.69;101052.28;5085540;27;45318;-67
2022/08/13 07:00:43;;;;;;;;;10.00;8.25;;;;;29.63;26.93;101060.19;5093493;27;45402;-67
2022/08/13 07:03:10;;;;;;;;;11.25;11.25;;;;;29.52;26.56;101053.66;5081223;27;45233;-68
2022/08/13 07:05:38;;;;;;;;;9.00;9.00;;;;;29.32;26.89;101053.44;5104783;27;45238;-67
2022/08/13 07:08:07;;;;;;;;;8.00;8.00;;;;;29.47;26.90;101055.56;5075043;27;45385;-67
2022/08/13 07:10:40;;;;;;;;;43.00;38.00;;;;;29.64;26.37;101061.91;5078737;27;47860;-67
2022/08/13 07:13:05;;;;;;;;;9.75;8.75;;;;;29.69;26.42;101067.53;5078918;27;45364;-68
2022/08/13 07:15:31;;;;;;;;;7.67;7.67;;;;;29.72;26.18;101062.25;5090613;27;45504;-67
2022/08/13 07:17:58;;;;;;;;;7.00;6.00;;;;;29.72;26.06;101058.59;5093726;27;45456;-68
2022/08/13 07:20:25;;;;;;;;;8.00;8.00;;;;;29.78;26.20;101066.78;5089733;27;46286;-68
2022/08/13 07:22:52;;;;;;;;;7.67;7.67;;;;;29.85;26.00;101066.53;5093406;27;46215;-68
2022/08/13 07:25:22;;;;;;;;;8.00;8.00;;;;;29.93;25.91;101068.88;5079234;28;45402;-67
2022/08/13 07:27:50;;;;;;;;;8.50;8.25;;;;;30.04;25.99;101059.41;5093619;27;45536;-67
2022/08/13 07:30:15;;;;;;;;;9.00;8.25;;;;;30.11;25.91;101067.59;5090122;27;45283;-68
2022/08/13 07:32:41;;;;;;;;;7.33;7.33;;;;;30.11;25.58;101065.63;5094337;27;45419;-68
2022/08/13 07:35:08;;;;;;;;;8.25;8.25;;;;;30.18;25.83;101068.19;5088212;27;45342;-67
2022/08/13 07:37:36;;;;;;;;;7.33;7.33;;;;;30.03;25.67;101068.94;5090640;27;45472;-68
2022/08/13 07:40:08;;;;;;;;;8.75;8.75;;;;;29.97;26.14;101081.22;5087751;27;45501;-67
2022/08/13 07:42:38;;;;;;;;;8.50;7.25;;;;;29.98;25.95;101085.72;5092036;27;45476;-67
2022/08/13 07:45:05;;;;;;;;;7.25;7.25;;;;;30.00;26.00;101083.50;5089903;27;45416;-67
2022/08/13 07:47:31;;;;;;;;;7.00;6.00;;;;;30.30;25.56;101087.63;5089825;27;45563;-68
2022/08/13 07:50:01;;;;;;;;;7.00;7.00;;;;;30.50;25.42;101079.34;5088504;27;45314;-68
2022/08/13 07:52:29;;;;;;;;;13.75;12.00;;;;;30.53;25.30;101071.25;5089519;27;45322;-67
2022/08/13 07:54:55;;;;;;;;;6.67;6.00;;;;;30.68;25.59;101076.09;5088232;27;45550;-67
2022/08/13 07:57:23;;;;;;;;;8.00;8.00;;;;;30.83;25.24;101073.31;5087315;27;45231;-68
2022/08/13 07:59:49;;;;;;;;;9.75;9.75;;;;;30.93;24.73;101069.72;5087566;27;45493;-67
2022/08/13 08:02:14;;;;;;;;;8.00;8.00;;;;;31.02;24.92;101073.69;5095331;27;45321;-67
2022/08/13 08:04:41;;;;;;;;;8.00;8.00;;;;;31.21;24.81;101071.22;5086214;27;45306;-68
2022/08/13 08:07:08;;;;;;;;;9.00;8.00;;;;;31.38;24.57;101069.03;5095988;27;45323;-68
2022/08/13 08:09:34;;;;;;;;;7.00;7.00;;;;;31.55;24.46;101072.41;5084580;27;45613;-68
2022/08/13 08:14:46;;;;;;;;;5.00;5.00;;;;;31.94;23.61;101071.88;5086922;27;45317;-68
2022/08/13 08:17:11;;;;;;;;;6.00;6.00;;;;;32.17;23.42;101081.72;5090989;27;45181;-68
2022/08/13 08:19:46;;;;;;;;;7.00;6.67;;;;;32.39;23.61;101080.25;5085509;27;45673;-67
2022/08/13 08:22:12;;;;;;;;;8.67;7.00;;;;;32.46;23.13;101072.34;5094338;27;45230;-67
2022/08/13 08:24:38;;;;;;;;;6.00;5.00;;;;;32.34;23.46;101080.28;5085161;27;45406;-68
2022/08/13 08:27:11;;;;;;;;;5.33;5.33;;;;;32.51;23.08;101079.97;5085415;27;45427;-67
2022/08/13 08:29:40;;;;;;;;;5.25;5.25;;;;;32.39;22.92;101073.78;5085201;27;45412;-68
2022/08/13 08:32:08;;;;;;;;;5.00;5.00;;;;;32.55;22.64;101072.63;5101118;27;45521;-67
2022/08/13 08:34:37;;;;;;;;;6.67;6.67;;;;;32.90;22.67;101080.09;5091855;27;45431;-68
2022/08/13 08:37:03;;;;;;;;;5.00;5.00;;;;;33.20;22.31;101073.47;5073168;28;45225;-68
2022/08/13 08:45:02;;;;;;;;;6.33;5.00;;;;;33.60;21.60;101069.56;5088393;27;45350;-68
2022/08/13 08:47:35;;;;;;;;;5.00;5.00;;;;;33.83;22.05;101080.06;5088464;27;46919;-68
2022/08/13 08:50:01;;;;;;;;;7.50;5.75;;;;;34.02;21.75;101080.19;5087832;27;45378;-68
2022/08/13 08:55:12;;;;;;;;;5.50;5.50;;;;;34.35;20.50;101081.28;5089559;27;45251;-68
2022/08/13 08:57:39;;;;;;;;;5.25;5.00;;;;;34.43;21.27;101083.44;5085991;27;45389;-68
2022/08/13 09:00:05;;;;;;;;;6.00;6.00;;;;;34.54;21.30;101079.38;5075294;27;47391;-68
2022/08/13 09:02:33;;;;;;;;;7.00;7.00;;;;;34.63;20.73;101074.75;5091346;27;45176;-68
2022/08/13 09:05:01;;;;;;;;;4.75;4.75;;;;;34.59;21.16;101073.69;5087430;27;45388;-68
2022/08/13 09:07:29;;;;;;;;;6.00;6.00;;;;;34.71;21.27;101085.38;5095278;27;45485;-68
2022/08/13 09:09:57;;;;;;;;;6.00;6.00;;;;;34.78;20.64;101078.56;5088343;27;46163;-68
2022/08/13 09:12:27;;;;;;;;;4.25;4.25;;;;;34.82;20.86;101079.63;5085818;27;45279;-66
2022/08/13 09:14:53;;;;;;;;;4.25;4.25;;;;;34.91;20.06;101080.66;5086299;27;45308;-66
2022/08/13 09:17:20;;;;;;;;;5.25;5.00;;;;;35.09;20.18;101075.00;5086716;27;45295;-66
2022/08/13 09:19:46;;;;;;;;;4.00;4.00;;;;;35.46;19.74;101079.03;5084897;27;45484;-66
2022/08/13 09:22:17;;;;;;;;;4.75;4.75;;;;;35.81;20.29;101069.13;5091041;27;45409;-66
2022/08/13 09:24:46;;;;;;;;;5.50;5.25;;;;;36.11;19.76;101074.25;5077833;27;45520;-67
2022/08/13 09:27:15;;;;;;;;;5.25;5.25;;;;;36.36;18.53;101075.78;5091493;27;45373;-67
2022/08/13 09:29:42;;;;;;;;;4.33;4.33;;;;;36.62;19.06;101065.63;5084071;27;45397;-67
2022/08/13 09:32:09;;;;;;;;;4.50;4.50;;;;;36.89;18.29;101073.31;5099608;27;45324;-67
2022/08/13 09:34:36;;;;;;;;;8.00;7.50;;;;;36.90;18.63;101068.47;5072555;27;45309;-67
2022/08/13 09:37:02;;;;;;;;;4.25;4.25;;;;;37.10;18.18;101075.69;5096770;27;45556;-67
2022/08/13 09:39:43;;;;;;;;;4.00;4.00;;;;;37.21;18.34;101074.31;5073267;27;46747;-67
2022/08/13 09:42:16;;;;;;;;;5.00;5.00;;;;;37.27;18.20;101068.19;5088319;27;45211;-67
2022/08/13 09:44:42;;;;;;;;;6.25;6.25;;;;;37.35;18.24;101075.09;5074492;27;45353;-68
2022/08/13 09:47:10;;;;;;;;;3.75;3.00;;;;;37.37;17.42;101067.13;5090793;27;45350;-67
2022/08/13 09:49:36;;;;;;;;;3.50;3.50;;;;;37.50;17.54;101066.22;5083214;27;45571;-67
2022/08/13 09:52:02;;;;;;;;;5.00;5.00;;;;;37.54;17.50;101077.78;5090634;27;45334;-67
2022/08/13 09:54:27;;;;;;;;;5.00;5.00;;;;;37.75;17.61;101078.97;5081876;27;45259;-67
2022/08/13 09:56:55;;;;;;;;;4.75;3.75;;;;;37.60;17.28;101060.34;5081900;27;45675;-68
2022/08/13 09:59:22;;;;;;;;;3.75;3.75;;;;;37.70;17.45;101057.25;5082395;27;45565;-69
2022/08/13 10:01:50;;;;;;;;;4.25;4.25;;;;;37.83;17.45;101057.50;5095590;27;45318;-68
2022/08/13 10:04:18;;;;;;;;;4.00;4.00;;;;;37.97;16.68;101058.28;5082618;27;45471;-68
2022/08/13 10:06:45;;;;;;;;;8.75;7.00;;;;;38.13;16.99;101068.91;5074128;27;45476;-68
2022/08/13 10:09:11;;;;;;;;;4.50;3.50;;;;;38.27;15.92;101059.47;5085897;27;45491;-68
2022/08/13 10:11:36;;;;;;;;;5.00;4.00;;;;;38.42;15.86;101057.03;5093926;27;45342;-68
2022/08/13 10:14:02;;;;;;;;;5.00;5.00;;;;;38.14;15.82;101050.72;5080867;28;45358;-68
2022/08/13 10:16:27;;;;;;;;;3.25;3.25;;;;;38.10;15.98;101057.38;5087594;27;45561;-68
2022/08/13 10:18:52;;;;;;;;;3.75;3.75;;;;;38.39;16.86;101054.84;5065229;28;47867;-68
2022/08/13 10:21:18;;;;;;;;;4.25;4.25;;;;;38.27;16.47;101043.28;5092094;27;45556;-68
2022/08/13 10:23:43;;;;;;;;;5.50;5.50;;;;;38.34;15.36;101045.63;5063652;28;45538;-68
2022/08/13 10:26:09;;;;;;;;;4.00;4.00;;;;;38.50;15.64;101038.41;5094703;27;45485;-68
2022/08/13 10:28:38;;;;;;;;;4.00;4.00;;;;;38.53;15.02;101051.91;5084696;27;45447;-68
2022/08/13 10:31:09;;;;;;;;;3.75;3.75;;;;;38.51;15.38;101043.72;5074956;27;45403;-69
2022/08/13 10:33:36;;;;;;;;;4.00;4.00;;;;;38.36;14.80;101040.44;5097025;27;45288;-68
2022/08/13 10:36:04;;;;;;;;;3.75;3.75;;;;;38.72;15.13;101041.09;5079739;27;45585;-68
2022/08/13 10:38:29;;;;;;;;;4.75;4.75;;;;;39.22;14.90;101049.25;5087014;27;45569;-68
2022/08/13 10:41:07;;;;;;;;;4.00;4.00;;;;;39.21;14.82;101044.75;5093002;27;45431;-68
2022/08/13 10:43:38;;;;;;;;;4.25;4.25;;;;;39.44;14.16;101032.06;5085447;27;45278;-68
2022/08/13 10:46:04;;;;;;;;;4.00;4.00;;;;;39.29;14.53;101029.69;5095234;27;45330;-68
2022/08/13 10:48:30;;;;;;;;;4.00;4.00;;;;;39.39;14.56;101028.53;5085450;27;45426;-68
2022/08/13 10:50:56;;;;;;;;;3.25;3.25;;;;;39.50;14.14;101019.34;5093575;27;45407;-68
2022/08/13 10:56:08;;;;;;;;;6.25;4.75;;;;;39.67;14.38;101021.34;5097239;27;45397;-68
2022/08/13 10:58:34;;;;;;;;;3.25;3.25;;;;;40.01;14.43;101021.28;5085364;27;45290;-68
2022/08/13 11:01:03;;;;;;;;;4.25;4.25;;;;;40.37;14.45;101017.16;5096591;27;45234;-68
2022/08/13 11:03:33;;;;;;;;;4.50;4.50;;;;;40.03;13.65;101018.09;5089827;27;45348;-68
2022/08/13 11:06:00;;;;;;;;;5.00;4.00;;;;;40.18;13.82;101020.41;5096753;27;45226;-67
2022/08/13 11:08:39;;;;;;;;;6.50;4.00;;;;;39.81;13.59;101019.16;5069800;27;46769;-67
2022/08/13 11:11:07;;;;;;;;;3.75;3.75;;;;;39.87;13.82;101023.50;5095973;27;45714;-67
2022/08/13 11:13:33;;;;;;;;;4.00;4.00;;;;;40.35;13.80;101020.31;5082683;27;45436;-67
2022/08/13 11:16:00;;;;;;;;;4.25;4.25;;;;;39.85;13.58;101023.00;5089899;27;45218;-67
2022/08/13 11:18:27;;;;;;;;;3.00;3.00;;;;;39.30;13.47;101011.47;5085714;27;45461;-67
2022/08/13 11:21:03;;;;;;;;;2.75;2.75;;;;;39.28;13.24;101020.34;5091012;27;45639;-67
2022/08/13 11:23:29;;;;;;;;;4.00;4.00;;;;;39.75;12.55;101016.78;5099281;27;45511;-67
2022/08/13 11:25:55;;;;;;;;;5.00;5.00;;;;;40.11;12.85;101016.41;5079392;27;45709;-67
2022/08/13 11:28:20;;;;;;;;;3.75;3.75;;;;;40.28;12.71;101013.50;5084333;27;47418;-67
2022/08/13 11:30:50;;;;;;;;;2.75;2.75;;;;;40.49;12.57;101007.84;5093543;27;45414;-67
2022/08/13 11:33:16;;;;;;;;;3.25;3.25;;;;;40.54;12.56;101004.84;5083691;27;45316;-68
2022/08/13 11:35:43;;;;;;;;;2.75;2.75;;;;;40.66;12.01;101014.34;5094149;27;45562;-67
2022/08/13 11:38:10;;;;;;;;;3.00;3.00;;;;;41.08;12.45;101012.38;5089464;27;45377;-68
2022/08/13 11:40:37;;;;;;;;;3.00;3.00;;;;;41.28;11.93;101007.84;5088776;27;45631;-67
2022/08/13 11:43:02;;;;;;;;;5.00;3.25;;;;;41.45;12.27;100999.16;5071776;28;45259;-67
2022/08/13 11:45:28;;;;;;;;;4.00;2.50;;;;;41.49;12.44;101008.69;5089221;27;45448;-67